createdAt,value
2022-10-15T00:00:52.688Z,13.57
2022-10-15T00:03:20.098Z,15.13
2022-10-15T00:05:47.465Z,17.10
2022-10-15T00:08:14.870Z,13.95
2022-10-15T00:10:42.257Z,16.10
2022-10-15T00:13:09.661Z,13.13
2022-10-15T00:15:37.984Z,15.95
2022-10-15T00:18:05.484Z,18.10
2022-10-15T00:20:32.922Z,15.15
2022-10-15T00:23:00.305Z,16.23
2022-10-15T00:25:28.397Z,19.13
2022-10-15T00:27:55.772Z,14.07
2022-10-15T00:30:23.214Z,14.75
2022-10-15T00:32:50.620Z,14.85
2022-10-15T00:35:18.074Z,14.05
2022-10-15T00:37:45.942Z,16.15
2022-10-15T00:40:15.648Z,13.40
2022-10-15T00:42:43.121Z,13.73
2022-10-15T00:45:14.268Z,15.73
2022-10-15T00:47:44.265Z,14.90
2022-10-15T00:50:17.110Z,14.32
2022-10-15T00:52:49.298Z,13.85
2022-10-15T00:55:27.347Z,13.82
2022-10-15T00:57:56.306Z,14.32
2022-10-15T01:00:23.880Z,15.68
2022-10-15T01:02:51.473Z,16.73
2022-10-15T01:05:20.015Z,18.20
2022-10-15T01:07:47.412Z,17.00
2022-10-15T01:10:15.532Z,12.75
2022-10-15T01:13:18.668Z,14.93
2022-10-15T01:19:04.084Z,13.45
2022-10-15T01:22:06.511Z,14.25
2022-10-15T01:25:11.810Z,14.55
2022-10-15T01:27:43.737Z,10.57
2022-10-15T01:30:21.402Z,12.30
2022-10-15T01:32:54.502Z,13.05
2022-10-15T01:35:26.502Z,13.82
2022-10-15T01:38:13.138Z,14.23
2022-10-15T01:41:00.780Z,16.83
2022-10-15T01:44:07.003Z,14.20
2022-10-15T01:46:47.064Z,13.90
2022-10-15T01:49:21.609Z,14.82
2022-10-15T01:51:51.531Z,11.05
2022-10-15T01:54:21.549Z,14.35
2022-10-15T01:56:51.587Z,12.00
2022-10-15T01:59:29.254Z,13.73
2022-10-15T02:01:58.095Z,11.82
2022-10-15T02:04:28.881Z,12.77
2022-10-15T02:07:29.452Z,14.55
2022-10-15T02:10:31.754Z,12.10
2022-10-15T02:13:19.194Z,11.38
2022-10-15T02:16:09.676Z,13.65
2022-10-15T02:19:00.233Z,16.48
2022-10-15T02:21:52.070Z,12.57
2022-10-15T02:24:55.521Z,10.73
2022-10-15T02:27:24.889Z,13.63
2022-10-15T02:29:53.382Z,12.95
2022-10-15T02:32:22.778Z,12.40
2022-10-15T02:34:51.642Z,11.85
2022-10-15T02:37:23.293Z,10.25
2022-10-15T02:39:51.082Z,10.15
2022-10-15T02:42:19.446Z,13.88
2022-10-15T02:44:46.967Z,13.98
2022-10-15T02:47:14.843Z,14.45
2022-10-15T02:49:42.354Z,14.32
2022-10-15T02:52:09.728Z,12.27
2022-10-15T02:54:37.137Z,13.75
2022-10-15T02:57:04.532Z,11.52
2022-10-15T02:59:31.924Z,11.82
2022-10-15T03:01:59.345Z,11.90
2022-10-15T03:04:26.773Z,13.50
2022-10-15T03:06:54.199Z,11.10
2022-10-15T03:09:21.629Z,8.80
2022-10-15T03:11:49.026Z,12.70
2022-10-15T03:14:16.494Z,12.63
2022-10-15T03:16:43.993Z,15.35
2022-10-15T03:19:11.426Z,11.18
2022-10-15T03:21:38.784Z,10.35
2022-10-15T03:24:06.591Z,8.93
2022-10-15T03:26:34.034Z,10.52
2022-10-15T03:29:01.442Z,15.77
2022-10-15T03:31:28.850Z,10.32
2022-10-15T03:33:56.343Z,11.60
2022-10-15T03:36:23.777Z,9.32
2022-10-15T03:38:51.149Z,12.50
2022-10-15T03:41:18.593Z,11.40
2022-10-15T03:43:46.011Z,9.68
2022-10-15T03:46:13.406Z,9.55
2022-10-15T03:48:40.779Z,10.32
2022-10-15T03:51:08.220Z,8.93
2022-10-15T03:53:35.604Z,10.35
2022-10-15T03:56:04.779Z,14.15
2022-10-15T03:58:32.165Z,10.20
2022-10-15T04:00:59.587Z,9.10
2022-10-15T04:03:27.073Z,9.52
2022-10-15T04:05:55.311Z,10.60
2022-10-15T04:08:24.173Z,12.43
2022-10-15T04:10:51.905Z,14.75
2022-10-15T04:13:19.294Z,9.70
2022-10-15T04:15:46.700Z,12.35
2022-10-15T04:18:14.412Z,10.60
2022-10-15T04:20:42.893Z,12.70
2022-10-15T04:23:10.568Z,13.57
2022-10-15T04:25:37.959Z,11.15
2022-10-15T04:28:05.711Z,10.48
2022-10-15T04:30:33.249Z,10.43
2022-10-15T04:33:00.686Z,8.05
2022-10-15T04:35:28.083Z,10.68
2022-10-15T04:37:58.702Z,9.95
2022-10-15T04:40:26.276Z,8.98
2022-10-15T04:42:53.633Z,9.48
2022-10-15T04:45:21.135Z,10.13
2022-10-15T04:47:48.643Z,8.85
2022-10-15T04:50:16.135Z,9.82
2022-10-15T04:52:43.553Z,13.60
2022-10-15T04:55:11.010Z,17.17
2022-10-15T04:57:38.575Z,10.15
2022-10-15T05:00:06.876Z,11.52
2022-10-15T05:02:34.529Z,6.95
2022-10-15T05:05:01.978Z,8.68
2022-10-15T05:07:29.383Z,8.43
2022-10-15T05:09:56.829Z,12.35
2022-10-15T05:12:24.282Z,8.25
2022-10-15T05:14:51.664Z,7.88
2022-10-15T05:17:19.071Z,7.97
2022-10-15T05:19:46.475Z,10.32
2022-10-15T05:22:13.865Z,7.47
2022-10-15T05:24:41.242Z,9.25
2022-10-15T05:27:08.645Z,11.02
2022-10-15T05:29:36.075Z,7.18
2022-10-15T05:32:03.554Z,8.85
2022-10-15T05:34:30.935Z,8.73
2022-10-15T05:36:58.427Z,6.93
2022-10-15T05:39:25.782Z,5.97
2022-10-15T05:41:53.683Z,7.43
2022-10-15T05:44:21.039Z,9.20
2022-10-15T05:46:48.444Z,10.68
2022-10-15T05:49:15.885Z,4.50
2022-10-15T05:51:43.402Z,6.57
2022-10-15T05:54:10.801Z,6.50
2022-10-15T05:56:38.489Z,6.55
2022-10-15T05:59:05.944Z,8.70
2022-10-15T06:01:33.357Z,7.45
2022-10-15T06:04:00.783Z,6.95
2022-10-15T06:06:28.206Z,5.88
2022-10-15T06:08:56.178Z,7.32
2022-10-15T06:11:23.632Z,9.70
2022-10-15T06:13:51.107Z,13.65
2022-10-15T06:16:22.598Z,7.72
2022-10-15T06:18:54.711Z,7.57
2022-10-15T06:21:22.335Z,9.43
2022-10-15T06:23:49.812Z,5.35
2022-10-15T06:26:17.375Z,9.48
2022-10-15T06:28:44.852Z,12.43
2022-10-15T06:31:12.539Z,8.93
2022-10-15T06:33:40.022Z,7.10
2022-10-15T06:36:09.475Z,8.13
2022-10-15T06:38:37.292Z,8.35
2022-10-15T06:41:06.043Z,8.45
2022-10-15T06:43:35.205Z,8.95
2022-10-15T06:46:05.306Z,7.45
2022-10-15T06:48:33.254Z,10.70
2022-10-15T06:51:01.672Z,11.52
2022-10-15T06:53:30.372Z,9.40
2022-10-15T06:56:03.281Z,7.40
2022-10-15T06:58:30.699Z,11.15
2022-10-15T07:01:02.793Z,10.73
2022-10-15T07:03:30.463Z,13.60
2022-10-15T07:06:03.740Z,13.35
2022-10-15T07:08:31.162Z,13.05
2022-10-15T07:10:58.838Z,20.52
2022-10-15T07:13:26.228Z,11.23
2022-10-15T07:15:56.127Z,9.63
2022-10-15T07:18:23.699Z,10.07
2022-10-15T07:20:51.144Z,9.52
2022-10-15T07:23:18.537Z,11.50
2022-10-15T07:25:46.015Z,12.63
2022-10-15T07:28:13.396Z,15.05
2022-10-15T07:30:40.751Z,12.68
2022-10-15T07:33:08.187Z,10.00
2022-10-15T07:35:37.705Z,13.43
2022-10-15T07:38:05.177Z,9.95
2022-10-15T07:40:32.600Z,10.77
2022-10-15T07:43:00.204Z,12.10
2022-10-15T07:45:30.053Z,14.88
2022-10-15T07:47:57.810Z,13.18
2022-10-15T07:50:28.129Z,13.75
2022-10-15T07:52:57.974Z,14.23
2022-10-15T07:55:25.406Z,13.32
2022-10-15T07:57:56.311Z,9.63
2022-10-15T08:00:23.856Z,10.60
2022-10-15T08:02:51.350Z,11.80
2022-10-15T08:05:18.724Z,10.13
2022-10-15T08:07:46.186Z,11.52
2022-10-15T08:10:13.787Z,11.77
2022-10-15T08:12:41.260Z,10.90
2022-10-15T08:15:08.996Z,11.40
2022-10-15T08:17:36.404Z,10.40
2022-10-15T08:20:04.607Z,12.05
2022-10-15T08:22:33.059Z,11.00
2022-10-15T08:25:00.447Z,12.02
2022-10-15T08:27:27.950Z,11.10
2022-10-15T08:29:55.432Z,8.80
2022-10-15T08:32:22.966Z,9.40
2022-10-15T08:34:50.616Z,8.40
2022-10-15T08:37:17.974Z,8.80
2022-10-15T08:39:45.342Z,7.63
2022-10-15T08:42:30.713Z,9.68
2022-10-15T08:45:03.242Z,9.85
2022-10-15T08:47:38.450Z,9.88
2022-10-15T08:50:20.918Z,6.55
2022-10-15T08:52:50.865Z,8.50
2022-10-15T08:55:21.468Z,10.48
2022-10-15T08:58:22.484Z,7.82
2022-10-15T09:00:51.574Z,9.45
2022-10-15T09:03:56.194Z,10.73
2022-10-15T09:06:29.086Z,10.23
2022-10-15T09:09:18.188Z,9.07
2022-10-15T09:12:15.617Z,7.75
2022-10-15T09:14:46.085Z,6.70
2022-10-15T09:17:26.009Z,9.48
2022-10-15T09:19:56.420Z,6.60
2022-10-15T09:22:27.448Z,7.20
2022-10-15T09:24:55.991Z,7.40
2022-10-15T09:27:38.446Z,7.63
2022-10-15T09:30:30.117Z,6.50
2022-10-15T09:33:03.738Z,8.30
2022-10-15T09:35:43.876Z,8.32
2022-10-15T09:38:28.122Z,7.32
2022-10-15T09:41:16.589Z,8.60
2022-10-15T09:43:51.601Z,5.57
2022-10-15T09:46:19.180Z,7.32
2022-10-15T09:49:03.014Z,6.80
2022-10-15T09:51:45.947Z,8.32
2022-10-15T09:54:38.380Z,5.70
2022-10-15T09:57:10.456Z,9.10
2022-10-15T09:59:38.003Z,5.53
2022-10-15T10:02:19.526Z,8.73
2022-10-15T10:04:46.984Z,11.32
2022-10-15T10:07:37.629Z,7.55
2022-10-15T10:10:22.837Z,8.82
2022-10-15T10:12:50.543Z,8.20
2022-10-15T10:15:29.863Z,4.63
2022-10-15T10:17:57.639Z,5.45
2022-10-15T10:20:32.172Z,10.55
2022-10-15T10:23:02.097Z,5.28
2022-10-15T10:25:32.090Z,6.22
2022-10-15T10:28:14.516Z,6.35
2022-10-15T10:30:51.045Z,5.22
2022-10-15T10:33:30.337Z,5.75
2022-10-15T10:35:59.279Z,6.20
2022-10-15T10:38:36.103Z,5.78
2022-10-15T10:41:11.981Z,6.10
2022-10-15T10:43:41.384Z,9.07
2022-10-15T10:46:14.995Z,3.67
2022-10-15T10:48:45.837Z,5.63
2022-10-15T10:51:27.887Z,5.07
2022-10-15T10:53:59.693Z,5.35
2022-10-15T10:56:42.570Z,6.60
2022-10-15T10:59:19.638Z,8.98
2022-10-15T11:01:47.731Z,8.82
2022-10-15T11:04:24.451Z,5.80
2022-10-15T11:07:05.934Z,3.75
2022-10-15T11:09:45.207Z,4.15
2022-10-15T11:12:36.694Z,7.13
2022-10-15T11:15:12.703Z,6.93
2022-10-15T11:18:01.011Z,11.13
2022-10-15T11:20:58.425Z,5.55
2022-10-15T11:23:36.767Z,6.88
2022-10-15T11:26:07.001Z,6.28
2022-10-15T11:28:46.751Z,4.10
2022-10-15T11:32:01.851Z,6.28
2022-10-15T11:35:34.354Z,5.65
2022-10-15T11:38:19.535Z,5.53
2022-10-15T11:40:55.909Z,11.15
2022-10-15T11:44:12.730Z,6.35
2022-10-15T11:46:45.793Z,7.15
2022-10-15T11:49:51.167Z,5.57
2022-10-15T11:52:39.258Z,6.70
2022-10-15T11:55:37.843Z,6.43
2022-10-15T11:58:22.704Z,7.03
2022-10-15T12:00:54.161Z,2.97
2022-10-15T12:03:29.114Z,6.88
2022-10-15T12:06:08.747Z,3.78
2022-10-15T12:08:38.744Z,4.28
2022-10-15T12:11:21.427Z,5.15
2022-10-15T12:14:05.480Z,4.55
2022-10-15T12:16:57.895Z,5.47
2022-10-15T12:19:41.695Z,4.13
2022-10-15T12:22:13.700Z,7.18
2022-10-15T12:24:51.665Z,5.60
2022-10-15T12:27:26.972Z,4.63
2022-10-15T12:30:00.623Z,2.60
2022-10-15T12:32:30.846Z,3.72
2022-10-15T12:35:04.070Z,3.10
2022-10-15T12:37:36.095Z,3.67
2022-10-15T12:40:28.368Z,5.82
2022-10-15T12:43:25.543Z,7.63
2022-10-15T12:45:56.547Z,3.22
2022-10-15T12:51:22.000Z,7.90
2022-10-15T12:53:56.307Z,4.70
2022-10-15T12:56:25.495Z,6.80
2022-10-15T12:58:56.592Z,5.20
2022-10-15T13:01:23.972Z,3.40
2022-10-15T13:03:51.394Z,6.97
2022-10-15T13:06:21.369Z,3.88
2022-10-15T13:08:48.691Z,5.30
2022-10-15T13:11:40.960Z,4.82
2022-10-15T13:14:32.797Z,2.58
2022-10-15T13:17:03.807Z,4.47
2022-10-15T13:22:20.176Z,3.53
2022-10-15T13:24:47.619Z,6.90
2022-10-15T13:27:22.745Z,3.97
2022-10-15T13:29:59.113Z,5.45
2022-10-15T13:32:32.582Z,6.57
2022-10-15T13:35:10.967Z,4.88
2022-10-15T13:37:41.171Z,4.63
2022-10-15T13:40:17.313Z,3.95
2022-10-15T13:42:59.313Z,6.22
2022-10-15T13:45:27.098Z,5.65
2022-10-15T13:47:55.147Z,6.57
2022-10-15T13:50:22.549Z,5.15
2022-10-15T13:52:58.395Z,5.82
2022-10-15T13:55:36.508Z,6.63
2022-10-15T13:58:27.604Z,5.53
2022-10-15T14:01:17.685Z,5.18
2022-10-15T14:03:53.833Z,3.83
2022-10-15T14:06:21.234Z,5.15
2022-10-15T14:08:51.316Z,4.20
2022-10-15T14:11:19.234Z,3.90
2022-10-15T14:13:53.028Z,6.88
2022-10-15T14:16:22.564Z,4.53
2022-10-15T14:18:59.256Z,4.07
2022-10-15T14:21:30.993Z,4.53
2022-10-15T14:24:12.643Z,5.63
2022-10-15T14:26:40.251Z,6.15
2022-10-15T14:29:17.891Z,6.10
2022-10-15T14:31:49.258Z,5.07
2022-10-15T14:34:46.961Z,7.90
2022-10-15T14:37:41.870Z,5.03
2022-10-15T14:40:12.173Z,3.72
2022-10-15T14:42:46.244Z,8.45
2022-10-15T14:45:19.056Z,7.15
2022-10-15T14:47:49.061Z,8.25
2022-10-15T14:50:17.964Z,27.70
2022-10-15T14:52:51.521Z,199.65
2022-10-15T14:55:24.677Z,179.30
2022-10-15T14:57:52.598Z,108.80
2022-10-15T15:00:27.569Z,19.63
2022-10-15T15:02:59.394Z,12.45
2022-10-15T15:05:28.303Z,9.57
2022-10-15T15:07:57.278Z,9.95
2022-10-15T15:10:27.133Z,11.93
2022-10-15T15:12:56.767Z,10.70
2022-10-15T15:15:27.584Z,17.67
2022-10-15T15:17:55.285Z,18.42
2022-10-15T15:20:24.355Z,14.95
2022-10-15T15:22:55.425Z,13.75
2022-10-15T15:28:03.760Z,10.85
2022-10-15T15:30:34.411Z,16.88
2022-10-15T15:33:02.241Z,20.00
2022-10-15T15:35:52.020Z,17.27
2022-10-15T15:38:21.143Z,29.35
2022-10-15T15:40:49.382Z,22.90
2022-10-15T15:43:19.047Z,11.20
2022-10-15T15:45:46.993Z,12.57
2022-10-15T15:48:14.488Z,15.63
2022-10-15T15:50:42.026Z,13.55
2022-10-15T15:53:12.115Z,15.60
2022-10-15T15:55:39.670Z,13.68
2022-10-15T15:58:07.030Z,14.00
2022-10-15T16:00:34.426Z,11.77
2022-10-15T16:03:01.867Z,12.80
2022-10-15T16:05:29.282Z,13.27
2022-10-15T16:07:56.713Z,21.73
2022-10-15T16:10:24.237Z,16.30
2022-10-15T16:12:51.602Z,21.27
2022-10-15T16:15:19.039Z,20.80
2022-10-15T16:17:46.484Z,22.85
2022-10-15T16:20:14.130Z,20.25
2022-10-15T16:22:42.796Z,18.17
2022-10-15T16:25:10.800Z,20.90
2022-10-15T16:27:38.327Z,25.02
2022-10-15T16:30:06.249Z,36.22
2022-10-15T16:32:33.729Z,21.67
2022-10-15T16:35:01.141Z,21.35
2022-10-15T16:37:28.644Z,25.40
2022-10-15T16:39:56.337Z,34.75
2022-10-15T16:42:23.699Z,37.08
2022-10-15T16:44:52.754Z,42.35
2022-10-15T16:47:21.551Z,49.83
2022-10-15T16:49:48.942Z,61.17
2022-10-15T16:52:16.343Z,60.75
2022-10-15T16:54:43.816Z,56.80
2022-10-15T16:57:11.257Z,46.47
2022-10-15T16:59:38.662Z,44.05
2022-10-15T17:02:06.234Z,33.90
2022-10-15T17:04:33.704Z,33.05
2022-10-15T17:07:01.175Z,40.30
2022-10-15T17:09:28.761Z,43.75
2022-10-15T17:11:56.164Z,28.80
2022-10-15T17:14:23.552Z,34.92
2022-10-15T17:16:52.733Z,29.27
2022-10-15T17:19:23.652Z,30.05
2022-10-15T17:21:51.934Z,29.27
2022-10-15T17:24:19.705Z,26.55
2022-10-15T17:26:47.878Z,24.65
2022-10-15T17:29:20.505Z,22.48
2022-10-15T17:31:49.570Z,22.45
2022-10-15T17:34:17.356Z,26.40
2022-10-15T17:36:47.458Z,20.38
2022-10-15T17:39:17.975Z,26.83
2022-10-15T17:41:45.478Z,22.77
2022-10-15T17:44:13.362Z,18.73
2022-10-15T17:46:41.458Z,19.80
2022-10-15T17:49:11.127Z,19.02
2022-10-15T17:51:39.059Z,22.25
2022-10-15T17:54:06.596Z,17.40
2022-10-15T17:56:38.429Z,17.90
2022-10-15T17:59:09.310Z,17.52
2022-10-15T18:01:57.935Z,16.20
2022-10-15T18:04:27.168Z,23.08
2022-10-15T18:06:54.659Z,16.60
2022-10-15T18:09:22.080Z,17.60
2022-10-15T18:11:49.778Z,17.98
2022-10-15T18:14:17.254Z,20.10
2022-10-15T18:16:44.760Z,16.38
2022-10-15T18:19:12.193Z,16.92
2022-10-15T18:21:39.658Z,16.63
2022-10-15T18:24:07.102Z,13.82
2022-10-15T18:26:34.563Z,16.02
2022-10-15T18:29:02.091Z,12.80
2022-10-15T18:31:31.485Z,11.93
2022-10-15T18:33:58.925Z,10.73
2022-10-15T18:36:29.934Z,12.48
2022-10-15T18:38:58.569Z,13.00
2022-10-15T18:41:33.668Z,14.48
2022-10-15T18:44:16.879Z,11.45
2022-10-15T18:46:45.764Z,13.95
2022-10-15T18:49:15.384Z,14.30
2022-10-15T18:51:43.551Z,13.18
2022-10-15T18:54:11.133Z,10.77
2022-10-15T18:56:39.306Z,13.45
2022-10-15T18:59:07.260Z,10.43
2022-10-15T19:01:41.697Z,10.48
2022-10-15T19:04:12.080Z,13.93
2022-10-15T19:06:51.876Z,12.53
2022-10-15T19:09:24.911Z,9.90
2022-10-15T19:11:54.612Z,10.95
2022-10-15T19:14:23.655Z,9.75
2022-10-15T19:16:51.595Z,7.57
2022-10-15T19:19:21.180Z,9.65
2022-10-15T19:21:50.167Z,8.63
2022-10-15T19:24:19.312Z,9.40
2022-10-15T19:26:49.460Z,6.88
2022-10-15T19:29:17.335Z,7.50
2022-10-15T19:31:46.543Z,7.88
2022-10-15T19:34:14.757Z,9.07
2022-10-15T19:36:46.523Z,6.60
2022-10-15T19:39:17.846Z,7.75
2022-10-15T19:41:46.128Z,10.00
2022-10-15T19:44:16.960Z,7.28
2022-10-15T19:46:46.824Z,6.85
2022-10-15T19:49:14.580Z,7.90
2022-10-15T19:51:42.559Z,8.90
2022-10-15T19:54:10.349Z,6.07
2022-10-15T19:56:37.986Z,7.43
2022-10-15T19:59:06.295Z,9.02
2022-10-15T20:01:34.248Z,5.53
2022-10-15T20:04:06.224Z,7.90
2022-10-15T20:06:36.422Z,8.32
2022-10-15T20:09:07.637Z,8.32
2022-10-15T20:11:35.533Z,9.02
2022-10-15T20:14:03.550Z,9.50
2022-10-15T20:16:33.240Z,8.02
2022-10-15T20:19:02.850Z,8.15
2022-10-15T20:21:30.463Z,6.35
2022-10-15T20:23:58.064Z,8.27
2022-10-15T20:26:25.552Z,7.60
2022-10-15T20:28:53.638Z,6.05
2022-10-15T20:31:21.797Z,7.53
2022-10-15T20:33:49.316Z,14.30
2022-10-15T20:36:22.786Z,6.53
2022-10-15T20:38:51.699Z,8.02
2022-10-15T20:41:19.704Z,8.45
2022-10-15T20:43:51.507Z,7.13
2022-10-15T20:46:26.936Z,10.10
2022-10-15T20:49:02.211Z,5.43
2022-10-15T20:51:33.341Z,7.13
2022-10-15T20:54:00.999Z,7.35
2022-10-15T20:56:28.596Z,5.85
2022-10-15T20:58:55.970Z,7.53
2022-10-15T21:01:23.581Z,6.95
2022-10-15T21:03:51.141Z,6.32
2022-10-15T21:06:18.916Z,7.28
2022-10-15T21:08:46.404Z,8.25
2022-10-15T21:11:13.863Z,10.13
2022-10-15T21:13:41.322Z,6.80
2022-10-15T21:16:09.102Z,7.93
2022-10-15T21:18:36.910Z,10.05
2022-10-15T21:21:10.245Z,7.75
2022-10-15T21:23:39.156Z,6.85
2022-10-15T21:26:14.667Z,13.15
2022-10-15T21:28:42.657Z,10.15
2022-10-15T21:31:12.750Z,8.70
2022-10-15T21:33:41.094Z,10.68
2022-10-15T21:36:26.504Z,8.68
2022-10-15T21:39:05.318Z,9.50
2022-10-15T21:41:34.923Z,10.98
2022-10-15T21:44:03.342Z,10.57
2022-10-15T21:46:31.637Z,13.57
2022-10-15T21:49:00.486Z,9.93
2022-10-15T21:51:30.651Z,11.15
2022-10-15T21:53:59.667Z,8.70
2022-10-15T21:56:27.285Z,10.85
2022-10-15T21:58:54.976Z,7.18
2022-10-15T22:01:24.781Z,8.45
2022-10-15T22:03:57.541Z,10.38
2022-10-15T22:06:25.031Z,7.28
2022-10-15T22:08:52.455Z,7.78
2022-10-15T22:13:57.089Z,9.55
2022-10-15T22:16:26.292Z,11.55
2022-10-15T22:18:54.479Z,9.00
2022-10-15T22:21:23.568Z,9.50
2022-10-15T22:23:55.973Z,10.95
2022-10-15T22:26:35.885Z,8.65
2022-10-15T22:29:06.008Z,10.70
2022-10-15T22:31:34.158Z,9.80
2022-10-15T22:34:01.679Z,7.07
2022-10-15T22:36:30.817Z,10.70
2022-10-15T22:39:05.167Z,7.70
2022-10-15T22:41:36.159Z,6.43
2022-10-15T22:44:04.271Z,7.90
2022-10-15T22:46:36.499Z,9.45
2022-10-15T22:49:05.224Z,10.38
2022-10-15T22:51:32.761Z,9.45
2022-10-15T22:54:01.118Z,7.22
2022-10-15T22:56:29.216Z,8.18
2022-10-15T22:58:57.636Z,8.68
2022-10-15T23:01:30.852Z,5.82
2022-10-15T23:04:01.784Z,7.95
2022-10-15T23:06:30.432Z,8.57
2022-10-15T23:08:58.827Z,7.15
2022-10-15T23:11:37.878Z,9.43
2022-10-15T23:14:12.670Z,8.60
2022-10-15T23:16:42.148Z,8.52
2022-10-15T23:19:18.187Z,7.03
2022-10-15T23:21:56.078Z,8.93
2022-10-15T23:24:26.129Z,8.80
2022-10-15T23:26:53.850Z,9.50
2022-10-15T23:29:24.184Z,9.82
2022-10-15T23:31:52.296Z,8.40
2022-10-15T23:34:25.211Z,6.75
2022-10-15T23:36:53.184Z,10.43
2022-10-15T23:39:23.733Z,9.95
2022-10-15T23:41:51.318Z,7.15
2022-10-15T23:44:19.025Z,6.10
2022-10-15T23:46:47.207Z,10.63
2022-10-15T23:49:14.649Z,7.75
2022-10-15T23:51:42.118Z,6.45
2022-10-15T23:54:15.567Z,7.40
2022-10-15T23:56:43.048Z,9.77
2022-10-15T23:59:10.912Z,7.03
